Time;durP1;ratioP1;P1;durP2;ratioP2;P2;SDS_P1;SDS_P2;PMS_P1;PMS_P2;Temp;Humidity;BMP_temperature;BMP_pressure;BME280_temperature;BME280_humidity;BME280_pressure;Samples;Min_cycle;Max_cycle;Signal;HPM_P1;HPM_P2
2022/01/12 00:01:22;;;;;;;13.70;7.47;;;;;;;-7.29;100.00;101683.78;1796049;79;21928;-85
2022/01/12 00:03:49;;;;;;;9.93;5.03;;;;;;;-7.33;100.00;101680.75;1794977;79;21057;-86
2022/01/12 00:06:16;;;;;;;13.30;8.08;;;;;;;-7.35;100.00;101677.77;1796109;79;21046;-86
2022/01/12 00:08:43;;;;;;;14.33;6.58;;;;;;;-7.38;100.00;101681.10;1795753;79;20999;-87
2022/01/12 00:11:10;;;;;;;11.68;6.65;;;;;;;-7.40;100.00;101683.17;1795986;79;21042;-87
2022/01/12 00:13:37;;;;;;;11.88;6.33;;;;;;;-7.42;100.00;101680.63;1795484;79;21428;-84
2022/01/12 00:16:05;;;;;;;13.30;6.25;;;;;;;-7.41;100.00;101686.53;1795995;79;21639;-84
2022/01/12 00:18:34;;;;;;;11.78;6.42;;;;;;;-7.43;100.00;101682.72;1796156;79;21038;-85
2022/01/12 00:21:03;;;;;;;12.53;6.10;;;;;;;-7.45;100.00;101679.30;1795601;79;21599;-83
2022/01/12 00:23:31;;;;;;;14.60;7.83;;;;;;;-7.45;100.00;101691.53;1796211;79;21003;-83
2022/01/12 00:26:12;;;;;;;13.98;8.70;;;;;;;-7.45;100.00;101680.56;1795693;79;21626;-82
2022/01/12 00:34:11;;;;;;;14.07;7.28;;;;;;;-7.48;100.00;101686.44;1776043;80;21050;-83
2022/01/12 00:36:39;;;;;;;13.48;7.00;;;;;;;-7.48;100.00;101688.96;1779935;80;21088;-83
2022/01/12 00:39:08;;;;;;;6.90;4.58;;;;;;;-7.49;100.00;101686.42;1788460;79;21111;-83
2022/01/12 00:41:38;;;;;;;10.15;4.60;;;;;;;-7.52;100.00;101702.80;1803423;79;21483;-83
2022/01/12 00:44:09;;;;;;;8.03;4.55;;;;;;;-7.61;100.00;101705.61;1779262;79;21495;-85
2022/01/12 00:46:37;;;;;;;8.93;5.07;;;;;;;-7.65;100.00;101684.02;1782076;79;21054;-82
2022/01/12 00:49:04;;;;;;;8.08;4.85;;;;;;;-7.69;100.00;101693.23;1803745;79;21527;-84
2022/01/12 00:51:36;;;;;;;14.47;6.37;;;;;;;-7.69;100.00;101701.25;1803476;79;21194;-84
2022/01/12 00:54:03;;;;;;;19.63;5.63;;;;;;;-7.71;100.00;101699.94;1804714;79;21033;-84
2022/01/12 00:56:30;;;;;;;17.27;7.47;;;;;;;-7.71;100.00;101696.14;1803015;79;21277;-84
2022/01/12 00:58:58;;;;;;;8.00;4.42;;;;;;;-7.70;100.00;101693.22;1803239;79;21473;-84
2022/01/12 01:01:27;;;;;;;10.25;5.75;;;;;;;-7.68;100.00;101700.00;1802875;79;21050;-85
2022/01/12 01:03:55;;;;;;;8.23;4.10;;;;;;;-7.68;100.00;101697.48;1780023;79;21989;-84
2022/01/12 01:06:22;;;;;;;11.35;5.55;;;;;;;-7.66;100.00;101687.37;1773349;80;21074;-84
2022/01/12 01:08:51;;;;;;;11.80;6.30;;;;;;;-7.65;100.00;101693.72;1771201;80;21012;-82
2022/01/12 01:11:19;;;;;;;9.80;4.75;;;;;;;-7.64;100.00;101681.52;1771511;80;21051;-83
2022/01/12 01:14:00;;;;;;;8.10;4.33;;;;;;;-7.62;100.00;101692.52;1771271;80;21090;-82
2022/01/12 01:16:42;;;;;;;8.30;4.12;;;;;;;-7.61;100.00;101698.45;1799575;79;21500;-82
2022/01/12 01:27:09;;;;;;;8.48;4.97;;;;;;;-7.74;100.00;101699.91;1770278;81;21042;-84
2022/01/12 01:29:36;;;;;;;10.88;5.67;;;;;;;-7.77;100.00;101697.31;1746518;79;21069;-84
2022/01/12 01:32:07;;;;;;;10.60;5.70;;;;;;;-7.79;100.00;101697.69;1770401;80;21481;-82
2022/01/12 01:34:42;;;;;;;11.93;5.22;;;;;;;-7.82;100.00;101702.70;1771329;79;21117;-82
2022/01/12 01:37:04;;;;;;;9.75;5.33;;;;;;;-7.83;100.00;101704.36;1767192;79;21548;-83
2022/01/12 01:39:31;;;;;;;10.20;5.33;;;;;;;-7.84;100.00;101710.24;1768349;80;20949;-83
2022/01/12 01:42:05;;;;;;;13.00;6.70;;;;;;;-7.84;100.00;101708.14;1767728;80;21806;-84
2022/01/12 01:53:17;;;;;;;12.58;5.95;;;;;;;-7.84;100.00;101714.03;1744180;80;21494;-82
2022/01/12 01:55:23;;;;;;;6.85;4.60;;;;;;;-7.82;100.00;101725.47;1769491;80;21815;-84
2022/01/12 01:57:51;;;;;;;8.50;3.90;;;;;;;-7.83;100.00;101720.80;1770023;80;21072;-85
2022/01/12 02:00:23;;;;;;;10.32;5.10;;;;;;;-7.85;100.00;101721.61;1770594;79;21009;-85
2022/01/12 02:02:57;;;;;;;11.12;4.83;;;;;;;-7.87;100.00;101728.30;1747847;81;21763;-84
2022/01/12 02:05:26;;;;;;;10.53;4.67;;;;;;;-7.87;100.00;101730.83;1743865;81;21020;-84
2022/01/12 02:07:53;;;;;;;8.33;4.50;;;;;;;-7.90;100.00;101739.22;1748884;81;21130;-83
2022/01/12 02:10:21;;;;;;;7.95;4.28;;;;;;;-7.93;100.00;101737.91;1710588;82;21075;-83
2022/01/12 02:12:49;;;;;;;9.55;5.50;;;;;;;-7.96;100.00;101735.31;1749033;81;21036;-83
2022/01/12 02:15:22;;;;;;;6.80;3.72;;;;;;;-7.99;100.00;101754.20;1710433;82;21084;-85
2022/01/12 02:40:09;;;;;;;7.75;4.03;;;;;;;-8.16;100.00;101757.23;1739291;80;21579;-83
2022/01/12 02:42:40;;;;;;;10.32;5.80;;;;;;;-8.22;100.00;101760.08;1766177;80;21038;-83
2022/01/12 02:50:44;;;;;;;9.45;5.30;;;;;;;-8.38;100.00;101767.72;1774262;80;21612;-83
2022/01/12 02:55:58;;;;;;;11.03;5.78;;;;;;;-8.40;100.00;101772.75;1767847;80;20979;-82
2022/01/12 02:58:25;;;;;;;16.45;7.85;;;;;;;-8.41;100.00;101768.09;1766897;80;21050;-82
2022/01/12 03:03:36;;;;;;;11.73;6.00;;;;;;;-8.37;100.00;101776.59;1760795;81;21631;-82
2022/01/12 03:06:06;;;;;;;8.18;4.30;;;;;;;-8.37;100.00;101766.91;1761161;81;21614;-83
2022/01/12 03:08:37;;;;;;;9.53;5.25;;;;;;;-8.36;100.00;101758.52;1767904;80;21086;-82
2022/01/12 03:11:11;;;;;;;11.35;6.53;;;;;;;-8.36;100.00;101768.20;1767222;81;21074;-82
2022/01/12 03:13:40;;;;;;;12.10;7.53;;;;;;;-8.35;100.00;101768.64;1767968;80;21501;-83
2022/01/12 03:16:12;;;;;;;4.83;3.50;;;;;;;-8.37;100.00;101765.64;1768053;81;21022;-82
2022/01/12 03:18:37;;;;;;;12.60;6.87;;;;;;;-8.40;100.00;101780.33;1766807;80;21129;-83
2022/01/12 03:21:06;;;;;;;9.95;6.35;;;;;;;-8.43;100.00;101768.88;1767814;80;21034;-81
2022/01/12 03:23:34;;;;;;;9.78;6.03;;;;;;;-8.47;100.00;101768.42;1767693;80;21647;-82
2022/01/12 03:26:03;;;;;;;10.03;6.12;;;;;;;-8.50;100.00;101764.55;1767735;80;21422;-83
2022/01/12 03:28:33;;;;;;;13.80;7.93;;;;;;;-8.54;100.00;101773.73;1768083;81;21030;-82
2022/01/12 03:31:10;;;;;;;10.48;5.90;;;;;;;-8.59;100.00;101776.16;1768108;80;21011;-83
2022/01/12 04:08:19;;;;;;;16.17;8.08;;;;;;;-9.00;100.00;101773.52;1767927;80;21077;-84
2022/01/12 04:10:52;;;;;;;13.18;5.35;;;;;;;-9.00;100.00;101767.20;1769538;80;21036;-84
2022/01/12 04:13:22;;;;;;;16.95;8.28;;;;;;;-9.01;100.00;101770.54;1773345;80;21087;-83
2022/01/12 04:15:53;;;;;;;;;;;;;;;-9.00;100.00;101773.52;1775633;80;21132;-83
2022/01/12 04:18:20;;;;;;;13.45;7.37;;;;;;;-9.00;100.00;101767.62;1768461;80;20172;-83
2022/01/12 04:20:49;;;;;;;13.32;7.20;;;;;;;-9.03;100.00;101775.98;1768288;80;21055;-84
2022/01/12 04:23:22;;;;;;;8.85;5.85;;;;;;;-9.06;100.00;101775.51;1743897;80;21013;-84
2022/01/12 04:25:58;;;;;;;12.88;7.15;;;;;;;-9.08;100.00;101773.34;1772503;80;21016;-84
2022/01/12 04:28:29;;;;;;;15.35;7.08;;;;;;;-9.07;100.00;101770.40;1772606;80;21124;-86
2022/01/12 04:30:57;;;;;;;11.85;4.50;;;;;;;-9.10;100.00;101769.08;1760518;80;21126;-84
2022/01/12 04:33:24;;;;;;;13.28;6.42;;;;;;;-9.13;100.00;101781.61;1780087;80;21005;-85
2022/01/12 04:35:53;;;;;;;10.15;5.17;;;;;;;-9.15;100.00;101788.28;1779563;80;21049;-85
2022/01/12 04:38:23;;;;;;;13.95;7.28;;;;;;;-9.20;100.00;101791.56;1779976;79;21038;-83
2022/01/12 04:40:52;;;;;;;14.43;7.22;;;;;;;-9.22;100.00;101786.88;1780666;78;23264;-83
2022/01/12 04:43:23;;;;;;;12.45;7.42;;;;;;;-9.25;100.00;101794.36;1771040;80;21563;-83
2022/01/12 04:50:55;;;;;;;7.80;4.25;;;;;;;-9.20;100.00;101785.25;1742637;82;21055;-86
2022/01/12 04:53:23;;;;;;;13.13;7.65;;;;;;;-9.21;100.00;101783.54;1773586;80;22022;-86
2022/01/12 04:55:52;;;;;;;7.83;4.53;;;;;;;-9.24;100.00;101791.44;1742559;82;21043;-87
2022/01/12 04:58:20;;;;;;;9.13;4.95;;;;;;;-9.29;100.00;101790.05;1738831;82;21081;-87
2022/01/12 05:00:48;;;;;;;14.85;7.35;;;;;;;-9.27;100.00;101802.70;1746079;82;21018;-88
2022/01/12 05:06:37;;;;;;;14.73;8.03;;;;;;;-9.35;100.00;101793.69;1746277;82;21070;-84
2022/01/12 05:14:04;;;;;;;15.03;5.97;;;;;;;-9.40;100.00;101800.27;1743795;80;20979;-85
2022/01/12 05:16:31;;;;;;;11.57;6.40;;;;;;;-9.43;100.00;101807.35;1761527;80;20982;-86
2022/01/12 05:19:00;;;;;;;30.27;15.68;;;;;;;-9.43;100.00;101802.30;1773512;80;21161;-86
2022/01/12 05:21:28;;;;;;;24.35;11.68;;;;;;;-9.45;100.00;101801.41;1774453;80;21030;-85
2022/01/12 05:24:00;;;;;;;22.42;10.13;;;;;;;-9.45;100.00;101806.45;1777174;79;21058;-86
2022/01/12 05:26:25;;;;;;;14.10;7.75;;;;;;;-9.44;100.00;101810.68;1808606;78;21053;-84
2022/01/12 05:28:53;;;;;;;19.25;9.38;;;;;;;-9.45;100.00;101807.71;1780073;80;21551;-83
2022/01/12 05:31:20;;;;;;;17.62;8.40;;;;;;;-9.46;100.00;101796.33;1779699;79;21210;-86
2022/01/12 05:33:51;;;;;;;19.55;9.30;;;;;;;-9.44;100.00;101804.38;1773372;78;21018;-84
2022/01/12 05:36:19;;;;;;;15.63;8.45;;;;;;;-9.42;100.00;101808.22;1794513;79;21208;-87
2022/01/12 05:38:48;;;;;;;18.23;8.80;;;;;;;-9.39;100.00;101805.38;1784097;79;21559;-85
2022/01/12 05:41:16;;;;;;;16.62;7.15;;;;;;;-9.37;100.00;101806.24;1779992;79;21025;-86
2022/01/12 05:43:45;;;;;;;11.60;5.12;;;;;;;-9.36;100.00;101812.16;1779848;79;21134;-87
2022/01/12 05:46:14;;;;;;;12.25;6.83;;;;;;;-9.36;100.00;101813.00;1779821;80;21022;-85
2022/01/12 05:51:31;;;;;;;16.65;8.68;;;;;;;-9.36;100.00;101812.16;1740680;80;21531;-83
2022/01/12 05:53:58;;;;;;;17.07;9.08;;;;;;;-9.35;100.00;101814.72;1780508;79;21003;-86
2022/01/12 05:56:26;;;;;;;17.70;8.13;;;;;;;-9.33;100.00;101810.96;1758586;79;21898;-84
2022/01/12 05:58:53;;;;;;;13.78;6.15;;;;;;;-9.32;100.00;101812.67;1682261;84;21012;-85
2022/01/12 06:01:21;;;;;;;12.37;7.12;;;;;;;-9.30;100.00;101814.84;1730040;79;21076;-86
2022/01/12 06:03:49;;;;;;;18.98;10.13;;;;;;;-9.25;100.00;101822.11;1774425;78;20982;-84
2022/01/12 06:06:16;;;;;;;13.90;7.90;;;;;;;-9.21;100.00;101816.34;1770551;80;21569;-84
2022/01/12 06:08:44;;;;;;;17.48;8.63;;;;;;;-9.16;100.00;101813.94;1774416;80;21133;-85
2022/01/12 06:11:12;;;;;;;19.00;9.28;;;;;;;-9.09;100.00;101820.84;1776246;80;21592;-85
2022/01/12 06:13:39;;;;;;;19.20;8.83;;;;;;;-9.02;100.00;101823.52;1684712;80;21080;-86
2022/01/12 06:16:07;;;;;;;15.90;8.83;;;;;;;-8.97;100.00;101821.56;1777174;79;21140;-84
2022/01/12 06:18:35;;;;;;;16.57;7.83;;;;;;;-8.93;100.00;101820.81;1779989;79;21055;-85
2022/01/12 06:21:02;;;;;;;20.15;9.33;;;;;;;-8.90;100.00;101815.84;1713535;82;21532;-85
2022/01/12 06:23:34;;;;;;;18.05;9.35;;;;;;;-8.84;100.00;101819.33;1713314;79;20983;-84
2022/01/12 06:26:02;;;;;;;21.73;10.63;;;;;;;-8.80;100.00;101818.59;1779752;79;21100;-85
2022/01/12 06:28:39;;;;;;;18.05;9.05;;;;;;;-8.78;100.00;101820.34;1776832;78;21045;-86
2022/01/12 06:31:18;;;;;;;11.30;7.35;;;;;;;-8.74;100.00;101820.88;1765523;78;21037;-86
2022/01/12 06:33:45;;;;;;;17.80;9.35;;;;;;;-8.72;100.00;101824.69;1765297;78;22160;-85
2022/01/12 06:36:20;;;;;;;13.28;6.78;;;;;;;-8.70;100.00;101823.45;1761135;79;21059;-87
2022/01/12 06:38:47;;;;;;;14.60;5.65;;;;;;;-8.68;100.00;101817.62;1734821;82;21563;-85
2022/01/12 06:41:15;;;;;;;13.15;6.42;;;;;;;-8.69;100.00;101823.48;1735739;81;20988;-84
2022/01/12 06:43:43;;;;;;;10.78;6.60;;;;;;;-8.66;100.00;101829.87;1733698;82;21093;-84
2022/01/12 06:46:10;;;;;;;13.25;6.47;;;;;;;-8.66;100.00;101841.67;1721670;82;21237;-85
2022/01/12 06:48:38;;;;;;;9.60;5.67;;;;;;;-8.73;100.00;101833.92;1736933;82;21019;-84
2022/01/12 06:51:05;;;;;;;12.65;6.33;;;;;;;-8.78;100.00;101840.55;1741420;80;21088;-83
2022/01/12 06:53:33;;;;;;;10.93;5.25;;;;;;;-8.85;100.00;101835.32;1707649;81;21028;-85
2022/01/12 06:56:01;;;;;;;7.30;4.60;;;;;;;-8.89;100.00;101837.76;1731825;82;22227;-84
2022/01/12 06:58:31;;;;;;;7.42;4.10;;;;;;;-8.93;100.00;101843.95;1705960;81;21114;-84
2022/01/12 07:00:58;;;;;;;8.30;4.85;;;;;;;-8.99;100.00;101843.80;1792726;79;21087;-84
2022/01/12 07:03:27;;;;;;;16.57;6.20;;;;;;;-9.08;100.00;101845.67;1766731;79;21025;-84
2022/01/12 07:05:56;;;;;;;10.50;5.33;;;;;;;-9.14;100.00;101856.48;1774388;79;21623;-85
2022/01/12 07:08:25;;;;;;;7.22;4.37;;;;;;;-9.20;100.00;101862.22;1771999;79;21043;-86
2022/01/12 07:10:52;;;;;;;19.25;10.50;;;;;;;-9.25;100.00;101856.59;1783621;79;21133;-85
2022/01/12 07:13:21;;;;;;;12.33;7.80;;;;;;;-9.28;100.00;101851.06;1757541;79;21000;-86
2022/01/12 07:15:48;;;;;;;6.05;3.52;;;;;;;-9.27;100.00;101862.88;1779346;79;21047;-85
2022/01/12 07:18:19;;;;;;;14.58;5.83;;;;;;;-9.24;100.00;101851.58;1771854;79;21022;-85
2022/01/12 07:20:46;;;;;;;11.20;6.70;;;;;;;-9.20;100.00;101852.52;1770469;81;21590;-85
2022/01/12 07:23:13;;;;;;;11.88;6.33;;;;;;;-9.15;100.00;101851.38;1770221;81;21120;-85
2022/01/12 07:25:40;;;;;;;9.15;5.17;;;;;;;-9.11;100.00;101851.92;1770585;80;20995;-85
2022/01/12 07:28:07;;;;;;;11.50;5.37;;;;;;;-9.06;100.00;101865.50;1770587;79;21658;-84
2022/01/12 07:30:34;;;;;;;8.03;4.87;;;;;;;-9.04;100.00;101854.63;1737596;82;21124;-84
2022/01/12 07:33:01;;;;;;;8.63;5.72;;;;;;;-9.00;100.00;101856.81;1704222;83;21008;-84
2022/01/12 07:35:29;;;;;;;9.70;4.90;;;;;;;-8.96;100.00;101845.12;1726932;82;21171;-84
2022/01/12 07:37:56;;;;;;;12.35;6.58;;;;;;;-8.94;100.00;101846.90;1740754;82;20939;-84
2022/01/12 07:40:23;;;;;;;7.33;4.58;;;;;;;-8.91;100.00;101853.27;1782689;80;21057;-84
2022/01/12 07:42:51;;;;;;;8.60;4.47;;;;;;;-8.88;100.00;101849.96;1745409;82;21491;-85
2022/01/12 07:45:19;;;;;;;7.47;4.17;;;;;;;-8.89;100.00;101850.37;1761356;78;21073;-84
2022/01/12 07:47:46;;;;;;;12.63;6.60;;;;;;;-8.86;100.00;101849.59;1796254;79;21078;-84
2022/01/12 07:50:14;;;;;;;7.00;4.35;;;;;;;-8.83;100.00;101855.12;1814848;79;21460;-85
2022/01/12 07:52:41;;;;;;;8.63;4.75;;;;;;;-8.83;100.00;101852.21;1745170;82;21511;-85
2022/01/12 07:55:08;;;;;;;9.23;4.70;;;;;;;-8.80;100.00;101841.33;1814176;79;21019;-85
2022/01/12 07:57:35;;;;;;;10.95;5.12;;;;;;;-8.76;100.00;101858.25;1715913;82;21032;-83
2022/01/12 08:00:06;;;;;;;6.55;4.33;;;;;;;-8.75;100.00;101862.09;1814860;79;21130;-87
2022/01/12 08:02:35;;;;;;;8.25;4.75;;;;;;;-8.78;100.00;101867.06;1813589;79;21021;-86
2022/01/12 08:05:02;;;;;;;12.40;5.80;;;;;;;-8.81;100.00;101858.55;1814864;79;21081;-84
2022/01/12 08:07:35;;;;;;;13.55;5.90;;;;;;;-8.81;100.00;101859.39;1814845;79;21602;-85
2022/01/12 08:09:59;;;;;;;12.70;6.67;;;;;;;-8.79;100.00;101864.50;1792219;79;21022;-84
2022/01/12 08:12:26;;;;;;;13.08;6.33;;;;;;;-8.77;100.00;101866.24;1814373;78;21129;-84
2022/01/12 08:14:53;;;;;;;13.72;7.40;;;;;;;-8.78;100.00;101853.17;1815102;79;21056;-84
2022/01/12 08:17:20;;;;;;;7.45;4.67;;;;;;;-8.75;100.00;101853.64;1780823;79;21100;-86
2022/01/12 08:19:47;;;;;;;9.33;5.17;;;;;;;-8.72;100.00;101848.26;1815395;79;21024;-86
2022/01/12 08:22:14;;;;;;;15.90;6.97;;;;;;;-8.65;100.00;101859.38;1814876;79;21069;-85
2022/01/12 08:24:41;;;;;;;15.18;8.00;;;;;;;-8.60;100.00;101854.02;1815272;79;21116;-85
2022/01/12 08:27:09;;;;;;;12.90;6.30;;;;;;;-8.54;100.00;101852.47;1813714;79;21053;-85
2022/01/12 08:29:36;;;;;;;12.10;6.72;;;;;;;-8.49;100.00;101845.84;1777568;79;21037;-85
2022/01/12 08:32:04;;;;;;;12.28;6.62;;;;;;;-8.44;100.00;101835.39;1743196;81;21008;-86
2022/01/12 08:34:32;;;;;;;11.40;5.80;;;;;;;-8.38;100.00;101838.48;1814461;79;21056;-85
2022/01/12 08:37:00;;;;;;;8.65;4.83;;;;;;;-8.33;100.00;101840.72;1717133;82;21060;-85
2022/01/12 08:39:27;;;;;;;14.15;7.83;;;;;;;-8.31;100.00;101840.31;1775469;80;21551;-85
2022/01/12 08:41:54;;;;;;;16.37;4.72;;;;;;;-8.28;100.00;101832.39;1821263;78;21088;-84
2022/01/12 08:44:21;;;;;;;10.15;5.20;;;;;;;-8.26;100.00;101840.88;1749257;80;21046;-86
2022/01/12 08:46:48;;;;;;;11.83;6.15;;;;;;;-8.23;100.00;101836.29;1761573;80;21024;-85
2022/01/12 08:49:15;;;;;;;13.38;7.37;;;;;;;-8.19;100.00;101830.89;1759864;80;21085;-85
2022/01/12 08:51:42;;;;;;;6.45;3.83;;;;;;;-8.14;100.00;101826.38;1826159;78;21052;-86
2022/01/12 08:54:09;;;;;;;11.50;5.75;;;;;;;-8.12;100.00;101828.94;1725205;81;21040;-85
2022/01/12 08:56:37;;;;;;;7.33;4.40;;;;;;;-8.13;100.00;101818.41;1826067;78;21029;-86
2022/01/12 08:59:04;;;;;;;6.45;3.67;;;;;;;-8.18;100.00;101826.28;1753338;81;21052;-84
2022/01/12 09:01:32;;;;;;;9.35;4.90;;;;;;;-8.21;100.00;101812.34;1756628;80;21167;-85
2022/01/12 09:03:59;;;;;;;11.85;6.25;;;;;;;-8.31;100.00;101828.55;1725665;81;21565;-84
2022/01/12 09:06:26;;;;;;;7.20;4.25;;;;;;;-8.42;100.00;101819.47;1826577;78;21056;-85
2022/01/12 09:08:53;;;;;;;7.55;3.62;;;;;;;-8.57;100.00;101826.31;1725990;81;21043;-85
2022/01/12 09:11:21;;;;;;;8.48;4.55;;;;;;;-8.63;100.00;101836.28;1752352;80;21047;-84
2022/01/12 09:13:48;;;;;;;9.05;5.45;;;;;;;-8.59;100.00;101838.05;1783559;78;21014;-84
2022/01/12 09:16:15;;;;;;;6.83;4.03;;;;;;;-8.48;100.00;101826.92;1696962;83;20949;-86
2022/01/12 09:18:43;;;;;;;7.42;3.33;;;;;;;-8.38;100.00;101829.23;1793944;79;21038;-84
2022/01/12 09:21:11;;;;;;;12.43;7.00;;;;;;;-8.33;100.00;101825.12;1808698;78;21002;-84
2022/01/12 09:23:38;;;;;;;12.05;8.03;;;;;;;-8.31;100.00;101820.10;1799520;78;21037;-84
2022/01/12 09:26:05;;;;;;;9.50;4.97;;;;;;;-8.33;100.00;101821.34;1822055;78;21131;-84
2022/01/12 09:28:33;;;;;;;10.38;5.83;;;;;;;-8.33;100.00;101821.34;1802352;78;21027;-84
2022/01/12 09:31:01;;;;;;;9.30;5.08;;;;;;;-8.34;100.00;101829.73;1794181;78;21045;-86
2022/01/12 09:33:30;;;;;;;9.03;5.63;;;;;;;-8.37;100.00;101820.81;1753938;80;21635;-85
2022/01/12 09:35:58;;;;;;;13.22;6.33;;;;;;;-8.43;100.00;101811.84;1823834;78;21628;-84
2022/01/12 09:38:25;;;;;;;10.05;5.22;;;;;;;-8.43;100.00;101815.63;1757913;80;21085;-85
2022/01/12 09:40:54;;;;;;;8.95;4.58;;;;;;;-8.41;100.00;101811.05;1775741;80;20986;-84
2022/01/12 09:43:33;;;;;;;11.65;6.53;;;;;;;-8.37;100.00;101817.02;1768572;79;21021;-85
2022/01/12 09:45:58;;;;;;;7.70;3.77;;;;;;;-8.36;100.00;101821.69;1752731;81;21567;-84
2022/01/12 09:48:26;;;;;;;8.98;5.47;;;;;;;-8.36;100.00;101812.41;1754525;80;21059;-85
2022/01/12 09:50:58;;;;;;;5.92;3.00;;;;;;;-8.34;100.00;101820.05;1765459;80;21093;-85
2022/01/12 09:53:24;;;;;;;9.48;5.28;;;;;;;-8.35;100.00;101802.75;1776726;80;20983;-86
2022/01/12 09:55:52;;;;;;;8.00;4.55;;;;;;;-8.35;100.00;101804.45;1752355;80;21574;-85
2022/01/12 09:58:19;;;;;;;9.50;5.20;;;;;;;-8.30;100.00;101802.86;1759094;79;20967;-85
2022/01/12 10:00:58;;;;;;;8.05;5.17;;;;;;;-8.24;100.00;101823.20;1759049;79;21244;-85
2022/01/12 10:03:27;;;;;;;15.25;8.70;;;;;;;-8.27;100.00;101808.83;1752050;80;21113;-85
2022/01/12 10:05:55;;;;;;;8.08;4.00;;;;;;;-8.30;100.00;101810.05;1773270;80;21026;-84
2022/01/12 10:08:23;;;;;;;8.90;4.33;;;;;;;-8.30;100.00;101810.44;1776906;80;21109;-84
2022/01/12 10:11:07;;;;;;;9.58;4.30;;;;;;;-8.29;100.00;101801.62;1765707;79;20998;-84
2022/01/12 10:13:37;;;;;;;9.20;4.97;;;;;;;-8.29;100.00;101797.83;1751737;80;21700;-85
2022/01/12 10:16:18;;;;;;;9.05;5.60;;;;;;;-8.32;100.00;101797.78;1765669;79;21795;-84
2022/01/12 10:18:52;;;;;;;9.95;5.62;;;;;;;-8.36;100.00;101799.78;1735936;82;21066;-85
2022/01/12 10:21:38;;;;;;;10.85;4.03;;;;;;;-8.35;100.00;101790.13;1750921;80;21011;-84
2022/01/12 10:24:10;;;;;;;11.30;5.92;;;;;;;-8.35;100.00;101796.44;1755315;80;21523;-83
2022/01/12 10:26:46;;;;;;;9.88;5.65;;;;;;;-8.37;100.00;101789.65;1750398;80;20994;-85
2022/01/12 10:29:19;;;;;;;7.85;4.67;;;;;;;-8.38;100.00;101798.92;1740766;80;21117;-84
2022/01/12 10:31:57;;;;;;;10.63;5.40;;;;;;;-8.43;100.00;101805.52;1755904;80;21059;-85
2022/01/12 10:34:31;;;;;;;9.45;5.65;;;;;;;-8.46;100.00;101799.16;1779204;79;21030;-85
2022/01/12 10:36:58;;;;;;;7.83;4.30;;;;;;;-8.50;100.00;101786.90;1770733;80;21085;-85
2022/01/12 10:39:29;;;;;;;11.20;5.97;;;;;;;-8.46;100.00;101777.26;1781153;78;21654;-84
2022/01/12 10:42:09;;;;;;;11.93;5.92;;;;;;;-8.45;100.00;101779.39;1772851;79;21073;-85
2022/01/12 10:44:43;;;;;;;6.60;3.85;;;;;;;-8.40;100.00;101787.49;1724689;79;21126;-85
2022/01/12 10:47:23;;;;;;;7.72;4.50;;;;;;;-8.43;100.00;101781.12;1775468;79;21081;-85
2022/01/12 10:50:05;;;;;;;8.58;3.98;;;;;;;-8.42;100.00;101788.28;1780267;79;21070;-85
2022/01/12 10:52:41;;;;;;;10.93;5.95;;;;;;;-8.45;100.00;101779.39;1758437;79;21109;-82
2022/01/12 10:55:12;;;;;;;8.75;4.90;;;;;;;-8.42;100.00;101781.58;1807027;78;21180;-86
2022/01/12 10:57:44;;;;;;;6.80;3.52;;;;;;;-8.32;100.00;101775.04;1784904;78;21089;-86
2022/01/12 11:00:28;;;;;;;6.37;4.08;;;;;;;-8.27;100.00;101783.56;1758360;79;21535;-86
2022/01/12 11:02:56;;;;;;;11.20;5.85;;;;;;;-8.25;100.00;101788.25;1788953;79;20967;-86
2022/01/12 11:05:26;;;;;;;5.80;3.52;;;;;;;-8.29;100.00;101787.72;1770254;79;21064;-85
2022/01/12 11:07:55;;;;;;;7.97;4.58;;;;;;;-8.30;100.00;101779.72;1781543;79;21147;-86
2022/01/12 11:10:26;;;;;;;12.05;6.92;;;;;;;-8.33;100.00;101780.91;1779948;79;21062;-85
2022/01/12 11:12:54;;;;;;;12.28;6.15;;;;;;;-8.31;100.00;101782.20;1759160;80;21586;-87
2022/01/12 11:15:22;;;;;;;8.20;5.17;;;;;;;-8.28;100.00;101774.27;1803906;79;21007;-86
2022/01/12 11:17:52;;;;;;;10.88;5.17;;;;;;;-8.29;100.00;101775.51;1782230;79;21537;-85
2022/01/12 11:20:30;;;;;;;5.57;3.30;;;;;;;-8.34;100.00;101777.94;1785669;78;21692;-85
2022/01/12 11:23:16;;;;;;;12.40;5.17;;;;;;;-8.42;100.00;101778.17;1804880;78;21013;-86
2022/01/12 11:25:48;;;;;;;9.83;5.03;;;;;;;-8.50;100.00;101781.84;1784913;79;21140;-86
2022/01/12 11:28:19;;;;;;;4.25;3.20;;;;;;;-8.53;100.00;101781.77;1794202;78;21026;-86
2022/01/12 11:30:54;;;;;;;10.13;6.25;;;;;;;-8.51;100.00;101775.08;1806430;78;21114;-86
2022/01/12 11:33:35;;;;;;;7.60;2.77;;;;;;;-8.47;100.00;101774.73;1749429;80;21638;-88
2022/01/12 11:36:13;;;;;;;10.40;5.42;;;;;;;-8.52;100.00;101787.66;1779910;80;21523;-86
2022/01/12 11:38:50;;;;;;;4.42;2.85;;;;;;;-8.61;100.00;101785.36;1750211;80;21057;-87
2022/01/12 11:41:30;;;;;;;10.70;5.03;;;;;;;-8.73;100.00;101782.57;1775456;80;21057;-87
2022/01/12 11:44:17;;;;;;;9.58;5.45;;;;;;;-8.72;100.00;101789.34;1745277;80;21030;-84
2022/01/12 11:46:57;;;;;;;7.25;3.62;;;;;;;-8.61;100.00;101789.58;1759682;80;21145;-87
2022/01/12 11:49:28;;;;;;;9.60;5.13;;;;;;;-8.47;100.00;101783.58;1753118;78;21053;-88
2022/01/12 11:51:59;;;;;;;6.65;3.87;;;;;;;-8.43;100.00;101777.73;1756094;81;21062;-86
2022/01/12 11:54:33;;;;;;;7.12;3.65;;;;;;;-8.42;100.00;101783.23;1752006;79;28826;-87
2022/01/12 11:57:07;;;;;;;10.35;4.37;;;;;;;-8.48;100.00;101786.50;1786931;79;21064;-85
2022/01/12 12:00:00;;;;;;;8.20;4.78;;;;;;;-8.49;100.00;101795.31;1780372;79;21134;-87
2022/01/12 12:02:34;;;;;;;9.30;4.45;;;;;;;-8.49;100.00;101790.27;1723568;82;21002;-86
2022/01/12 12:05:10;;;;;;;10.95;6.15;;;;;;;-8.48;100.00;101792.81;1713167;82;21089;-85
2022/01/12 12:07:54;;;;;;;9.08;3.90;;;;;;;-8.48;100.00;101790.71;1731676;81;21037;-87
2022/01/12 12:10:25;;;;;;;6.83;3.90;;;;;;;-8.49;100.00;101802.90;1700995;82;21745;-86
2022/01/12 12:12:55;;;;;;;8.70;4.20;;;;;;;-8.56;100.00;101789.27;1785443;79;21752;-86
2022/01/12 12:15:26;;;;;;;6.87;3.65;;;;;;;-8.59;100.00;101793.00;1779794;79;21016;-86
2022/01/12 12:17:57;;;;;;;13.72;7.62;;;;;;;-8.66;100.00;101792.00;1754423;79;21135;-86
2022/01/12 12:20:26;;;;;;;11.90;6.37;;;;;;;-8.70;100.00;101796.94;1765386;80;21560;-85
2022/01/12 12:22:55;;;;;;;7.87;4.90;;;;;;;-8.71;100.00;101796.09;1776743;79;21201;-86
2022/01/12 12:25:25;;;;;;;7.15;4.08;;;;;;;-8.73;100.00;101811.61;1729648;81;21855;-85
2022/01/12 12:27:54;;;;;;;;;;;;;;;-8.78;100.00;101800.14;1686089;82;20938;-86
2022/01/12 12:30:24;;;;;;;9.20;5.92;;;;;;;-8.82;100.00;101800.03;1712321;82;20187;-87
2022/01/12 12:32:56;;;;;;;8.20;3.53;;;;;;;-8.88;100.00;101804.13;1770248;80;21030;-88
2022/01/12 12:35:27;;;;;;;5.80;3.98;;;;;;;-8.92;100.00;101802.33;1775389;80;21061;-87
2022/01/12 12:37:58;;;;;;;10.75;6.10;;;;;;;-8.94;100.00;101800.19;1746429;79;21070;-87
2022/01/12 12:40:30;;;;;;;5.85;4.00;;;;;;;-8.93;100.00;101813.23;1777232;79;21077;-87
2022/01/12 12:43:25;;;;;;;5.40;3.22;;;;;;;-8.89;100.00;101812.90;1767256;80;21101;-87
2022/01/12 12:45:59;;;;;;;7.67;4.80;;;;;;;-8.90;100.00;101809.95;1683634;82;21496;-88
2022/01/12 12:48:31;;;;;;;4.78;2.83;;;;;;;-8.92;100.00;101801.48;1752719;80;21069;-88
2022/01/12 12:51:13;;;;;;;7.95;4.53;;;;;;;-8.93;100.00;101813.23;1788734;79;21900;-86
2022/01/12 12:53:52;;;;;;;9.43;4.75;;;;;;;-8.96;100.00;101808.52;1779390;79;21547;-86
2022/01/12 12:56:21;;;;;;;9.58;3.65;;;;;;;-8.98;100.00;101817.33;1770454;78;21026;-88
2022/01/12 12:58:51;;;;;;;12.82;5.60;;;;;;;-8.99;100.00;101806.78;1780048;80;38086;-88
2022/01/12 13:01:21;;;;;;;6.15;3.83;;;;;;;-8.95;100.00;101802.66;1737222;80;21094;-86
2022/01/12 13:03:54;;;;;;;8.93;4.30;;;;;;;-8.84;100.00;101805.05;1776544;80;21757;-85
2022/01/12 13:06:28;;;;;;;14.40;6.70;;;;;;;-8.82;100.00;101803.81;1739873;78;21565;-87
2022/01/12 13:09:05;;;;;;;7.30;4.25;;;;;;;-8.88;100.00;101809.56;1760211;80;22040;-87
2022/01/12 13:11:36;;;;;;;6.05;3.02;;;;;;;-8.94;100.00;101806.89;1748786;80;21108;-87
2022/01/12 13:14:08;;;;;;;9.98;4.95;;;;;;;-8.98;100.00;101802.60;1792383;79;21680;-86